Craven, South Dakota
Current Conditions -  °F | °C
As of 4:53 AM on Monday 20 Oct 2014 (Local Time) from KABR Reporting Station
Clear Clear  
Wind Chill: 33°   Ceiling: Unl
Heat Index: 33°   Visibility: 10mi
Dew Point: 30°   Wind: 3mph
Humidity: 89%   Direction: 150°SSE
Pressure: 30.04"   Gusts: NA
Location:  45.4188°N, 99.0275°W
Report Text: KABR 200953Z AUTO 15003KT 10SM CLR 01/M01 A3004 RMK AO2 SLP176 T00061011
Loading
Personal Weather Stations






























Interactive Weather Map
Tropical Storm Tracking
New forecast layout! Learn more

10-Day Weather Forecast

Advertisements
Track Severe Weather on mobile